createdAt,value
2023-04-26T00:01:14.599Z,2.80
2023-04-26T00:04:16.349Z,3.00
2023-04-26T00:07:18.084Z,3.30
2023-04-26T00:10:19.734Z,2.75
2023-04-26T00:13:21.240Z,2.72
2023-04-26T00:16:22.796Z,2.85
2023-04-26T00:19:24.351Z,2.80
2023-04-26T00:22:25.817Z,2.75
2023-04-26T00:25:27.216Z,2.47
2023-04-26T00:28:31.801Z,2.55
2023-04-26T00:31:33.469Z,2.58
2023-04-26T00:34:36.464Z,2.90
2023-04-26T00:37:37.902Z,2.92
2023-04-26T00:40:39.600Z,2.97
2023-04-26T00:43:41.497Z,3.22
2023-04-26T00:46:43.287Z,3.05
2023-04-26T00:49:45.081Z,2.75
2023-04-26T00:52:47.262Z,2.58
2023-04-26T00:55:49.387Z,2.03
2023-04-26T00:58:51.207Z,2.72
2023-04-26T01:01:53.302Z,2.75
2023-04-26T01:04:54.865Z,2.38
2023-04-26T01:07:56.421Z,2.67
2023-04-26T01:10:59.098Z,2.67
2023-04-26T01:14:01.825Z,2.88
2023-04-26T01:17:03.960Z,2.75
2023-04-26T01:20:06.269Z,3.38
2023-04-26T01:23:11.798Z,3.42
2023-04-26T01:26:13.534Z,4.40
2023-04-26T01:29:17.200Z,4.43
2023-04-26T01:32:18.675Z,4.15
2023-04-26T01:35:20.131Z,3.20
2023-04-26T01:38:22.867Z,3.42
2023-04-26T01:41:24.537Z,3.40
2023-04-26T01:44:27.050Z,3.53
2023-04-26T01:47:28.508Z,3.47
2023-04-26T01:50:30.107Z,3.40
2023-04-26T01:53:31.778Z,3.10
2023-04-26T01:56:33.248Z,3.58
2023-04-26T01:59:36.003Z,3.22
2023-04-26T02:02:37.677Z,3.55
2023-04-26T02:05:39.368Z,3.60
2023-04-26T02:08:40.897Z,3.65
2023-04-26T02:11:42.408Z,3.50
2023-04-26T02:14:43.891Z,3.20
2023-04-26T02:17:45.343Z,3.63
2023-04-26T02:20:46.905Z,3.85
2023-04-26T02:23:48.962Z,3.90
2023-04-26T02:26:51.885Z,3.85
2023-04-26T02:29:53.374Z,3.90
2023-04-26T02:32:55.426Z,4.18
2023-04-26T02:35:57.008Z,4.15
2023-04-26T02:38:59.374Z,4.35
2023-04-26T02:42:01.122Z,3.90
2023-04-26T02:45:02.606Z,3.63
2023-04-26T02:48:04.669Z,4.22
2023-04-26T02:51:06.332Z,3.60
2023-04-26T02:54:08.244Z,4.15
2023-04-26T02:57:09.838Z,3.92
2023-04-26T03:00:14.052Z,4.22
2023-04-26T03:03:16.071Z,4.28
2023-04-26T03:06:19.738Z,4.10
2023-04-26T03:09:22.216Z,4.25
2023-04-26T03:12:23.714Z,4.70
2023-04-26T03:15:25.284Z,4.65
2023-04-26T03:18:26.811Z,3.90
2023-04-26T03:21:28.508Z,4.70
2023-04-26T03:24:30.856Z,4.15
2023-04-26T03:27:32.492Z,4.38
2023-04-26T03:30:35.087Z,4.50
2023-04-26T03:33:36.848Z,4.57
2023-04-26T03:36:39.773Z,4.50
2023-04-26T03:39:41.604Z,4.45
2023-04-26T03:42:44.214Z,4.70
2023-04-26T03:45:49.366Z,4.97
2023-04-26T03:48:51.427Z,4.80
2023-04-26T03:51:53.177Z,5.50
2023-04-26T03:54:54.624Z,5.00
2023-04-26T03:57:56.104Z,4.53
2023-04-26T04:00:58.501Z,4.75
2023-04-26T04:04:00.603Z,5.18
2023-04-26T04:07:03.550Z,5.57
2023-04-26T04:10:05.795Z,5.20
2023-04-26T04:13:09.768Z,4.95
2023-04-26T04:16:12.070Z,5.30
2023-04-26T04:19:13.583Z,4.75
2023-04-26T04:22:15.386Z,4.53
2023-04-26T04:25:17.630Z,4.82
2023-04-26T04:28:19.172Z,4.53
2023-04-26T04:31:21.966Z,5.00
2023-04-26T04:34:26.355Z,5.60
2023-04-26T04:37:29.040Z,5.38
2023-04-26T04:40:30.641Z,4.88
2023-04-26T04:43:33.045Z,4.97
2023-04-26T04:46:34.612Z,5.25
2023-04-26T04:49:37.689Z,5.25
2023-04-26T04:52:39.258Z,4.93
2023-04-26T04:55:41.140Z,4.93
2023-04-26T04:58:43.550Z,5.20
2023-04-26T05:01:45.332Z,4.70
2023-04-26T05:04:49.367Z,4.72
2023-04-26T05:07:51.196Z,5.78
2023-04-26T05:10:53.357Z,5.75
2023-04-26T05:13:55.105Z,5.68
2023-04-26T05:16:57.512Z,5.40
2023-04-26T05:19:59.653Z,6.05
2023-04-26T05:23:01.303Z,6.35
2023-04-26T05:26:06.731Z,8.93
2023-04-26T05:29:31.273Z,6.53
2023-04-26T05:32:43.306Z,7.32
2023-04-26T05:36:04.194Z,9.05
2023-04-26T05:39:06.429Z,9.82
2023-04-26T05:42:07.990Z,8.15
2023-04-26T05:45:10.886Z,6.75
2023-04-26T05:48:13.521Z,6.80
2023-04-26T05:51:15.953Z,5.72
2023-04-26T05:54:17.515Z,6.88
2023-04-26T05:57:19.451Z,6.28
2023-04-26T06:00:23.436Z,6.00
2023-04-26T06:03:27.129Z,6.20
2023-04-26T06:06:28.957Z,5.10
2023-04-26T06:09:33.336Z,5.55
2023-04-26T06:12:34.885Z,5.18
2023-04-26T06:15:36.775Z,5.25
2023-04-26T06:18:38.250Z,5.10
2023-04-26T06:21:41.330Z,4.25
2023-04-26T06:24:43.362Z,4.30
2023-04-26T06:27:44.931Z,4.93
2023-04-26T06:30:46.581Z,4.60
2023-04-26T06:33:49.488Z,3.70
2023-04-26T06:36:51.293Z,3.92
2023-04-26T06:39:53.819Z,3.90
2023-04-26T06:42:57.156Z,4.10
2023-04-26T06:46:11.529Z,3.97
2023-04-26T06:49:14.112Z,4.22
2023-04-26T06:52:15.968Z,4.88
2023-04-26T06:55:17.625Z,4.78
2023-04-26T06:58:19.143Z,4.95
2023-04-26T07:01:20.652Z,4.88
2023-04-26T07:04:22.476Z,4.28
2023-04-26T07:07:24.031Z,4.20
2023-04-26T07:10:26.231Z,4.40
2023-04-26T07:13:27.838Z,4.30
2023-04-26T07:16:29.626Z,4.68
2023-04-26T07:19:31.392Z,4.80
2023-04-26T07:22:32.975Z,4.68
2023-04-26T07:25:34.391Z,4.47
2023-04-26T07:28:35.882Z,4.05
2023-04-26T07:31:37.448Z,4.43
2023-04-26T07:34:38.906Z,4.63
2023-04-26T07:37:40.380Z,4.35
2023-04-26T07:40:43.199Z,4.53
2023-04-26T07:43:44.709Z,3.70
2023-04-26T07:46:46.394Z,3.88
2023-04-26T07:49:53.521Z,4.40
2023-04-26T07:52:54.939Z,4.50
2023-04-26T07:55:56.409Z,4.35
2023-04-26T07:58:57.970Z,4.80
2023-04-26T08:01:59.625Z,3.80
2023-04-26T08:05:01.466Z,4.25
2023-04-26T08:08:03.033Z,3.80
2023-04-26T08:11:07.583Z,4.57
2023-04-26T08:14:09.139Z,3.70
2023-04-26T08:17:10.927Z,4.53
2023-04-26T08:20:12.997Z,4.03
2023-04-26T08:23:14.763Z,3.58
2023-04-26T08:26:16.297Z,4.10
2023-04-26T08:29:19.005Z,4.38
2023-04-26T08:32:20.500Z,4.40
2023-04-26T08:35:22.266Z,4.30
2023-04-26T08:38:24.628Z,4.50
2023-04-26T08:41:26.399Z,5.00
2023-04-26T08:44:29.253Z,4.25
2023-04-26T08:47:42.065Z,4.15
2023-04-26T08:50:45.972Z,4.88
2023-04-26T08:53:49.495Z,5.05
2023-04-26T08:56:51.751Z,4.60
2023-04-26T08:59:53.635Z,5.20
2023-04-26T09:02:55.658Z,5.60
2023-04-26T09:05:57.957Z,5.45
2023-04-26T09:09:02.384Z,4.45
2023-04-26T09:12:04.333Z,5.25
2023-04-26T09:15:09.522Z,4.75
2023-04-26T09:18:19.350Z,4.38
2023-04-26T09:21:20.927Z,3.88
2023-04-26T09:24:22.442Z,5.30
2023-04-26T09:27:36.201Z,5.18
2023-04-26T09:30:39.799Z,5.07
2023-04-26T09:33:58.309Z,5.10
2023-04-26T09:36:59.757Z,5.10
2023-04-26T09:40:01.383Z,5.25
2023-04-26T09:43:05.251Z,5.43
2023-04-26T09:46:07.105Z,5.15
2023-04-26T09:49:08.614Z,5.10
2023-04-26T09:52:10.358Z,5.57
2023-04-26T09:55:34.834Z,4.72
2023-04-26T09:58:39.046Z,4.88
2023-04-26T10:01:40.691Z,4.95
2023-04-26T10:04:46.216Z,4.53
2023-04-26T10:07:48.989Z,5.03
2023-04-26T10:10:51.370Z,4.60
2023-04-26T10:13:52.878Z,4.50
2023-04-26T10:16:55.119Z,4.35
2023-04-26T10:19:58.904Z,4.38
2023-04-26T10:23:01.948Z,4.55
2023-04-26T10:26:03.693Z,4.78
2023-04-26T10:29:05.390Z,4.60
2023-04-26T10:32:09.374Z,4.50
2023-04-26T10:35:12.597Z,4.05
2023-04-26T10:38:14.069Z,4.43
2023-04-26T10:41:33.208Z,4.57
2023-04-26T10:44:44.950Z,4.60
2023-04-26T10:47:47.020Z,4.05
2023-04-26T10:51:12.184Z,3.72
2023-04-26T10:54:13.934Z,4.05
2023-04-26T10:57:15.914Z,4.75
2023-04-26T11:00:21.007Z,3.97
2023-04-26T11:03:23.230Z,4.82
2023-04-26T11:06:25.564Z,4.15
2023-04-26T11:09:40.845Z,4.65
2023-04-26T11:12:42.465Z,4.60
2023-04-26T11:15:44.062Z,4.80
2023-04-26T11:18:47.295Z,4.30
2023-04-26T11:21:48.925Z,4.45
2023-04-26T11:24:50.373Z,4.78
2023-04-26T11:27:51.872Z,4.45
2023-04-26T11:30:54.029Z,4.60
2023-04-26T11:34:01.121Z,4.75
2023-04-26T11:37:04.609Z,4.47
2023-04-26T11:40:07.863Z,4.63
2023-04-26T11:43:11.685Z,5.37
2023-04-26T11:46:13.265Z,5.45
2023-04-26T11:49:16.302Z,5.28
2023-04-26T11:52:18.474Z,4.72
2023-04-26T11:55:25.553Z,4.32
2023-04-26T11:58:27.387Z,5.50
2023-04-26T12:01:30.063Z,4.90
2023-04-26T12:04:31.883Z,4.80
2023-04-26T12:07:39.731Z,5.38
2023-04-26T12:10:41.229Z,4.95
2023-04-26T12:13:42.698Z,4.70
2023-04-26T12:16:44.278Z,4.78
2023-04-26T12:19:50.125Z,4.57
2023-04-26T12:23:08.700Z,4.15
2023-04-26T12:26:12.008Z,3.92
2023-04-26T12:29:13.503Z,4.10
2023-04-26T12:32:14.947Z,4.00
2023-04-26T12:35:16.543Z,4.47
2023-04-26T12:38:18.983Z,4.05
2023-04-26T12:41:20.706Z,4.55
2023-04-26T12:44:22.805Z,4.60
2023-04-26T12:47:24.599Z,4.78
2023-04-26T12:50:26.199Z,4.97
2023-04-26T12:53:27.707Z,4.35
2023-04-26T12:56:29.856Z,4.00
2023-04-26T12:59:31.417Z,4.85
2023-04-26T13:02:33.813Z,4.00
2023-04-26T13:05:35.472Z,4.10
2023-04-26T13:08:36.945Z,4.65
2023-04-26T13:11:38.509Z,4.22
2023-04-26T13:14:40.906Z,4.07
2023-04-26T13:17:44.370Z,4.03
2023-04-26T13:20:45.905Z,3.72
2023-04-26T13:23:47.418Z,4.10
2023-04-26T13:26:48.960Z,3.85
2023-04-26T13:29:51.830Z,3.78
2023-04-26T13:32:53.463Z,4.07
2023-04-26T13:35:55.030Z,3.95
2023-04-26T13:38:56.482Z,4.75
2023-04-26T13:41:59.410Z,4.60
2023-04-26T13:45:06.120Z,3.90
2023-04-26T13:48:07.691Z,4.40
2023-04-26T13:51:09.243Z,3.97
2023-04-26T13:54:11.617Z,4.35
2023-04-26T13:57:13.276Z,3.60
2023-04-26T14:00:15.506Z,3.80
2023-04-26T14:03:17.214Z,3.92
2023-04-26T14:06:19.250Z,4.25
2023-04-26T14:09:20.952Z,3.83
2023-04-26T14:12:22.456Z,4.30
2023-04-26T14:15:23.935Z,4.60
2023-04-26T14:18:25.377Z,4.35
2023-04-26T14:21:26.956Z,4.05
2023-04-26T14:24:28.480Z,4.57
2023-04-26T14:27:30.214Z,4.45
2023-04-26T14:30:31.684Z,4.63
2023-04-26T14:33:33.177Z,5.03
2023-04-26T14:36:35.850Z,5.22
2023-04-26T14:39:37.676Z,4.80
2023-04-26T14:42:45.540Z,4.80
2023-04-26T14:45:47.231Z,5.13
2023-04-26T14:48:48.748Z,4.43
2023-04-26T14:51:52.984Z,5.20
2023-04-26T14:54:55.096Z,5.15
2023-04-26T14:57:56.563Z,5.50
2023-04-26T15:00:58.056Z,5.13
2023-04-26T15:04:00.955Z,5.18
2023-04-26T15:07:03.875Z,5.35
2023-04-26T15:10:07.669Z,4.38
2023-04-26T15:13:09.263Z,5.28
2023-04-26T15:16:10.856Z,5.30
2023-04-26T15:19:12.348Z,4.55
2023-04-26T15:22:13.833Z,5.00
2023-04-26T15:25:15.340Z,4.65
2023-04-26T15:28:17.831Z,4.47
2023-04-26T15:31:20.760Z,4.38
2023-04-26T15:34:25.184Z,4.25
2023-04-26T15:37:26.608Z,4.55
2023-04-26T15:40:28.197Z,3.95
2023-04-26T15:43:29.648Z,4.80
2023-04-26T15:46:31.166Z,4.00
2023-04-26T15:49:32.675Z,3.67
2023-04-26T15:52:38.607Z,4.25
2023-04-26T15:55:41.553Z,4.18
2023-04-26T15:58:47.113Z,4.38
2023-04-26T16:01:48.676Z,3.80
2023-04-26T16:04:50.367Z,4.10
2023-04-26T16:07:51.981Z,4.57
2023-04-26T16:10:53.549Z,4.70
2023-04-26T16:13:54.976Z,4.35
2023-04-26T16:16:57.831Z,4.35
2023-04-26T16:20:00.541Z,3.70
2023-04-26T16:23:02.123Z,3.70
2023-04-26T16:26:03.691Z,3.90
2023-04-26T16:29:05.250Z,4.20
2023-04-26T16:32:06.794Z,4.00
2023-04-26T16:35:09.064Z,4.45
2023-04-26T16:38:10.843Z,4.20
2023-04-26T16:41:12.289Z,4.38
2023-04-26T16:44:13.845Z,4.47
2023-04-26T16:47:15.290Z,5.07
2023-04-26T16:50:16.836Z,4.90
2023-04-26T16:53:18.768Z,5.03
2023-04-26T16:56:20.836Z,4.63
2023-04-26T16:59:22.637Z,4.45
2023-04-26T17:02:24.218Z,4.43
2023-04-26T17:05:25.841Z,4.65
2023-04-26T17:08:27.343Z,4.40
2023-04-26T17:11:29.396Z,4.97
2023-04-26T17:14:32.371Z,4.40
2023-04-26T17:17:33.965Z,4.68
2023-04-26T17:20:36.037Z,4.22
2023-04-26T17:23:37.506Z,4.25
2023-04-26T17:26:38.989Z,4.28
2023-04-26T17:29:40.493Z,4.78
2023-04-26T17:32:42.151Z,3.88
2023-04-26T17:35:43.709Z,3.95
2023-04-26T17:38:45.830Z,3.40
2023-04-26T17:41:47.367Z,4.20
2023-04-26T17:44:48.936Z,3.90
2023-04-26T17:47:50.501Z,4.78
2023-04-26T17:50:52.898Z,5.28
2023-04-26T17:53:54.462Z,8.07
2023-04-26T17:56:56.098Z,11.07
2023-04-26T17:59:57.555Z,8.95
2023-04-26T18:03:02.732Z,7.15
2023-04-26T18:06:04.635Z,6.78
2023-04-26T18:09:06.088Z,6.35
2023-04-26T18:12:08.193Z,6.57
2023-04-26T18:15:09.729Z,5.93
2023-04-26T18:18:11.282Z,6.07
2023-04-26T18:21:13.017Z,7.55
2023-04-26T18:24:14.487Z,9.55
2023-04-26T18:27:16.255Z,10.70
2023-04-26T18:30:18.297Z,9.80
2023-04-26T18:33:19.915Z,6.90
2023-04-26T18:36:21.556Z,6.15
2023-04-26T18:39:23.016Z,5.90
2023-04-26T18:42:24.553Z,6.38
2023-04-26T18:45:26.026Z,6.72
2023-04-26T18:48:27.665Z,5.78
2023-04-26T18:51:29.575Z,6.30
2023-04-26T18:54:33.042Z,5.97
2023-04-26T18:57:34.511Z,7.38
2023-04-26T19:00:36.525Z,7.85
2023-04-26T19:03:38.133Z,7.78
2023-04-26T19:06:42.904Z,6.75
2023-04-26T19:09:53.642Z,7.32
2023-04-26T19:12:55.895Z,7.35
2023-04-26T19:15:57.347Z,6.30
2023-04-26T19:18:58.796Z,6.40
2023-04-26T19:22:01.043Z,5.75
2023-04-26T19:25:02.721Z,7.07
2023-04-26T19:28:04.464Z,7.40
2023-04-26T19:31:06.017Z,7.30
2023-04-26T19:34:07.491Z,6.95
2023-04-26T19:37:09.375Z,7.05
2023-04-26T19:40:11.939Z,6.75
2023-04-26T19:43:13.775Z,6.13
2023-04-26T19:46:15.531Z,6.20
2023-04-26T19:49:17.223Z,6.65
2023-04-26T19:52:18.677Z,6.72
2023-04-26T19:55:20.414Z,6.32
2023-04-26T19:58:21.906Z,6.63
2023-04-26T20:01:23.692Z,5.97
2023-04-26T20:04:25.262Z,5.47
2023-04-26T20:07:27.608Z,5.03
2023-04-26T20:10:33.935Z,5.50
2023-04-26T20:13:35.930Z,5.93
2023-04-26T20:16:37.508Z,6.25
2023-04-26T20:19:39.314Z,5.82
2023-04-26T20:22:41.149Z,5.82
2023-04-26T20:25:42.702Z,5.45
2023-04-26T20:28:45.322Z,5.45
2023-04-26T20:31:46.886Z,5.88
2023-04-26T20:34:48.336Z,5.22
2023-04-26T20:37:50.447Z,5.22
2023-04-26T20:40:51.876Z,5.85
2023-04-26T20:43:53.424Z,5.63
2023-04-26T20:46:54.900Z,6.05
2023-04-26T20:49:56.591Z,6.05
2023-04-26T20:52:58.167Z,5.85
2023-04-26T20:55:59.606Z,5.40
2023-04-26T20:59:01.674Z,5.68
2023-04-26T21:02:03.384Z,5.90
2023-04-26T21:05:06.136Z,6.20
2023-04-26T21:08:07.588Z,5.60
2023-04-26T21:11:09.183Z,4.93
2023-04-26T21:14:10.905Z,5.22
2023-04-26T21:17:12.336Z,5.55
2023-04-26T21:20:13.999Z,5.47
2023-04-26T21:23:15.474Z,4.93
2023-04-26T21:26:16.916Z,5.35
2023-04-26T21:29:18.425Z,5.32
2023-04-26T21:32:19.968Z,5.25
2023-04-26T21:35:21.702Z,5.65
2023-04-26T21:38:23.219Z,5.43
2023-04-26T21:41:25.800Z,5.18
2023-04-26T21:44:27.340Z,5.55
2023-04-26T21:47:28.945Z,5.40
2023-04-26T21:50:30.669Z,5.18
2023-04-26T21:53:32.137Z,5.05
2023-04-26T21:56:33.901Z,4.95
2023-04-26T21:59:36.420Z,5.25
2023-04-26T22:02:39.006Z,5.43
2023-04-26T22:05:40.962Z,5.20
2023-04-26T22:08:42.520Z,5.60
2023-04-26T22:11:44.145Z,5.15
2023-04-26T22:14:45.698Z,5.40
2023-04-26T22:17:47.249Z,5.63
2023-04-26T22:20:48.804Z,5.90
2023-04-26T22:23:50.397Z,6.90
2023-04-26T22:26:52.031Z,7.70
2023-04-26T22:29:53.563Z,7.57
2023-04-26T22:32:57.368Z,6.82
2023-04-26T22:35:59.538Z,6.82
2023-04-26T22:39:01.435Z,5.60
2023-04-26T22:42:03.123Z,5.28
2023-04-26T22:45:05.051Z,5.50
2023-04-26T22:48:06.889Z,5.30
2023-04-26T22:51:08.492Z,5.55
2023-04-26T22:54:10.093Z,6.20
2023-04-26T22:57:11.645Z,5.68
2023-04-26T23:00:14.673Z,6.00
2023-04-26T23:03:16.478Z,6.00
2023-04-26T23:06:18.133Z,5.88
2023-04-26T23:09:19.793Z,6.05
2023-04-26T23:12:21.320Z,6.32
2023-04-26T23:15:23.624Z,6.15
2023-04-26T23:18:26.667Z,5.63
2023-04-26T23:21:28.318Z,5.25
2023-04-26T23:24:29.880Z,6.03
2023-04-26T23:27:31.436Z,6.20
2023-04-26T23:30:32.981Z,5.78
2023-04-26T23:33:34.501Z,5.75
2023-04-26T23:36:36.028Z,5.93
2023-04-26T23:39:37.581Z,5.63
2023-04-26T23:42:39.235Z,6.63
2023-04-26T23:45:47.215Z,6.72
2023-04-26T23:48:48.800Z,6.25
2023-04-26T23:51:50.404Z,6.22
2023-04-26T23:54:51.945Z,5.75
2023-04-26T23:57:53.412Z,5.32
